createdAt,value
2018-08-10T00:00:06.163Z,2.22
2018-08-10T00:02:34.769Z,2.40
2018-08-10T00:05:03.188Z,2.23
2018-08-10T00:07:31.466Z,2.20
2018-08-10T00:09:59.788Z,2.20
2018-08-10T00:12:28.354Z,2.20
2018-08-10T00:14:56.818Z,2.10
2018-08-10T00:17:25.275Z,2.40
2018-08-10T00:19:53.771Z,2.30
2018-08-10T00:22:22.248Z,2.20
2018-08-10T00:24:50.659Z,2.20
2018-08-10T00:27:19.280Z,2.27
2018-08-10T00:29:47.676Z,2.42
2018-08-10T00:32:16.061Z,2.22
2018-08-10T00:34:44.549Z,2.50
2018-08-10T00:37:13.053Z,2.30
2018-08-10T00:39:41.566Z,2.30
2018-08-10T00:42:10.187Z,2.45
2018-08-10T00:44:38.591Z,2.40
2018-08-10T00:47:07.743Z,2.50
2018-08-10T00:49:36.230Z,2.40
2018-08-10T00:52:04.627Z,2.37
2018-08-10T00:54:33.087Z,2.30
2018-08-10T00:57:01.400Z,2.37
2018-08-10T00:59:29.903Z,2.40
2018-08-10T01:01:58.285Z,2.40
2018-08-10T01:04:26.802Z,2.30
2018-08-10T01:06:55.302Z,2.40
2018-08-10T01:09:24.216Z,2.72
2018-08-10T01:11:52.812Z,2.40
2018-08-10T01:14:21.195Z,2.42
2018-08-10T01:16:49.705Z,2.50
2018-08-10T01:19:18.213Z,2.40
2018-08-10T01:21:46.629Z,3.00
2018-08-10T01:24:15.126Z,2.45
2018-08-10T01:26:43.611Z,2.50
2018-08-10T01:29:11.924Z,2.10
2018-08-10T01:31:41.346Z,2.60
2018-08-10T01:34:09.850Z,2.50
2018-08-10T01:36:38.339Z,2.20
2018-08-10T01:39:09.212Z,2.42
2018-08-10T01:41:37.962Z,2.23
2018-08-10T01:44:07.327Z,2.50
2018-08-10T01:46:35.822Z,2.30
2018-08-10T01:49:05.123Z,2.50
2018-08-10T01:51:34.150Z,2.50
2018-08-10T01:54:02.576Z,2.62
2018-08-10T01:56:30.871Z,2.20
2018-08-10T01:58:59.277Z,2.40
2018-08-10T02:01:27.661Z,2.70
2018-08-10T02:03:56.277Z,2.27
2018-08-10T02:06:24.645Z,2.20
2018-08-10T02:08:53.163Z,2.10
2018-08-10T02:11:21.879Z,2.30
2018-08-10T02:13:50.260Z,2.30
2018-08-10T02:16:18.558Z,2.10
2018-08-10T02:18:46.660Z,2.25
2018-08-10T02:21:15.273Z,2.37
2018-08-10T02:23:44.813Z,2.20
2018-08-10T02:26:14.685Z,1.90
2018-08-10T02:28:44.546Z,2.20
2018-08-10T02:31:14.000Z,1.95
2018-08-10T02:33:44.200Z,2.00
2018-08-10T02:36:14.357Z,1.90
2018-08-10T02:38:43.997Z,1.90
2018-08-10T02:41:14.203Z,1.90
2018-08-10T02:43:43.797Z,2.00
2018-08-10T02:46:13.884Z,1.90
2018-08-10T02:48:43.812Z,2.02
2018-08-10T02:51:13.525Z,2.00
2018-08-10T02:53:42.838Z,1.72
2018-08-10T02:56:12.470Z,1.80
2018-08-10T02:58:41.948Z,1.98
2018-08-10T03:01:11.440Z,2.00
2018-08-10T03:03:40.932Z,1.90
2018-08-10T03:06:10.798Z,1.90
2018-08-10T03:08:40.707Z,1.87
2018-08-10T03:11:10.375Z,1.90
2018-08-10T03:13:40.213Z,1.87
2018-08-10T03:16:10.529Z,1.90
2018-08-10T03:18:43.330Z,2.00
2018-08-10T03:21:13.259Z,1.80
2018-08-10T03:23:42.978Z,1.90
2018-08-10T03:26:12.540Z,1.70
2018-08-10T03:28:42.318Z,1.90
2018-08-10T03:31:12.652Z,1.65
2018-08-10T03:33:42.645Z,1.80
2018-08-10T03:36:12.453Z,1.60
2018-08-10T03:38:46.537Z,1.90
2018-08-10T03:41:16.010Z,1.80
2018-08-10T03:43:45.428Z,1.52
2018-08-10T03:46:15.268Z,1.80
2018-08-10T03:48:44.959Z,1.85
2018-08-10T03:51:14.786Z,1.90
2018-08-10T03:53:44.576Z,1.90
2018-08-10T03:56:14.327Z,2.20
2018-08-10T03:58:44.011Z,2.20
2018-08-10T04:01:13.466Z,2.00
2018-08-10T04:03:43.577Z,1.90
2018-08-10T04:06:16.437Z,1.80
2018-08-10T04:08:45.855Z,2.00
2018-08-10T04:11:15.628Z,1.95
2018-08-10T04:13:45.836Z,1.90
2018-08-10T04:16:15.492Z,1.80
2018-08-10T04:18:45.396Z,2.20
2018-08-10T04:21:15.053Z,2.17
2018-08-10T04:23:44.494Z,1.90
2018-08-10T04:26:14.288Z,2.00
2018-08-10T04:28:43.807Z,2.10
2018-08-10T04:31:14.631Z,2.00
2018-08-10T04:33:44.229Z,1.90
2018-08-10T04:36:14.023Z,2.00
2018-08-10T04:38:43.478Z,2.00
2018-08-10T04:41:12.931Z,3.00
2018-08-10T04:43:42.570Z,2.00
2018-08-10T04:46:12.344Z,2.12
2018-08-10T04:48:42.846Z,2.37
2018-08-10T04:51:12.626Z,2.30
2018-08-10T04:53:42.286Z,2.47
2018-08-10T04:56:12.218Z,2.42
2018-08-10T04:58:42.145Z,2.60
2018-08-10T05:01:11.597Z,2.20
2018-08-10T05:03:41.403Z,2.30
2018-08-10T05:06:11.025Z,2.10
2018-08-10T05:08:40.889Z,2.40
2018-08-10T05:11:10.723Z,2.00
2018-08-10T05:13:40.408Z,2.15
2018-08-10T05:16:09.657Z,2.25
2018-08-10T05:18:39.389Z,2.60
2018-08-10T05:21:08.325Z,1.92
2018-08-10T05:23:37.958Z,2.00
2018-08-10T05:26:07.581Z,1.90
2018-08-10T05:28:37.768Z,1.50
2018-08-10T05:31:07.294Z,1.77
2018-08-10T05:33:36.952Z,1.60
2018-08-10T05:36:06.539Z,1.60
2018-08-10T05:38:36.818Z,2.20
2018-08-10T05:41:06.144Z,1.80
2018-08-10T05:43:40.845Z,1.60
2018-08-10T05:46:10.645Z,1.60
2018-08-10T05:48:41.452Z,2.05
2018-08-10T05:51:12.243Z,2.00
2018-08-10T05:53:42.442Z,2.00
2018-08-10T05:56:12.770Z,2.37
2018-08-10T05:58:42.842Z,2.30
2018-08-10T06:01:15.566Z,1.90
2018-08-10T06:03:45.456Z,1.97
2018-08-10T06:06:14.773Z,2.40
2018-08-10T06:08:44.090Z,2.50
2018-08-10T06:11:14.140Z,2.50
2018-08-10T06:13:43.356Z,2.05
2018-08-10T06:16:13.079Z,1.90
2018-08-10T06:18:42.974Z,2.30
2018-08-10T06:21:13.224Z,2.40
2018-08-10T06:23:43.332Z,2.83
2018-08-10T06:26:13.274Z,2.90
2018-08-10T06:28:42.635Z,2.50
2018-08-10T06:31:12.769Z,2.35
2018-08-10T06:33:42.460Z,2.00
2018-08-10T06:36:12.234Z,2.02
2018-08-10T06:38:42.932Z,3.80
2018-08-10T06:41:12.499Z,2.30
2018-08-10T06:43:42.703Z,2.40
2018-08-10T06:48:47.132Z,2.30
2018-08-10T06:51:16.551Z,1.80
2018-08-10T06:53:45.842Z,2.10
2018-08-10T06:56:15.683Z,2.17
2018-08-10T06:58:45.550Z,2.10
2018-08-10T07:01:15.946Z,1.90
2018-08-10T07:03:45.538Z,2.10
2018-08-10T07:06:15.051Z,1.80
2018-08-10T07:08:44.755Z,2.00
2018-08-10T07:11:14.267Z,1.80
2018-08-10T07:13:44.063Z,1.80
2018-08-10T07:16:13.658Z,1.67
2018-08-10T07:18:42.945Z,1.70
2018-08-10T07:21:13.072Z,2.02
2018-08-10T07:23:43.413Z,2.02
2018-08-10T07:26:13.199Z,2.00
2018-08-10T07:28:43.463Z,2.20
2018-08-10T07:31:13.893Z,1.90
2018-08-10T07:33:45.192Z,1.98
2018-08-10T07:36:16.894Z,2.10
2018-08-10T07:38:47.994Z,1.70
2018-08-10T07:41:18.067Z,2.10
2018-08-10T07:43:48.396Z,2.10
2018-08-10T07:46:18.141Z,1.98
2018-08-10T07:48:49.906Z,1.80
2018-08-10T07:51:21.377Z,1.92
2018-08-10T07:53:51.594Z,1.82
2018-08-10T07:56:23.715Z,1.70
2018-08-10T07:58:54.088Z,1.43
2018-08-10T08:01:24.880Z,1.82
2018-08-10T08:03:55.075Z,1.60
2018-08-10T08:06:24.355Z,1.82
2018-08-10T08:08:53.984Z,1.50
2018-08-10T08:11:23.551Z,1.50
2018-08-10T08:13:52.872Z,1.60
2018-08-10T08:16:23.103Z,1.72
2018-08-10T08:18:53.424Z,1.60
2018-08-10T08:27:09.272Z,1.50
2018-08-10T08:29:39.425Z,1.50
2018-08-10T08:32:09.095Z,1.22
2018-08-10T08:34:38.809Z,1.35
2018-08-10T08:37:08.336Z,1.40
2018-08-10T08:40:47.795Z,1.90
2018-08-10T08:43:29.863Z,1.20
2018-08-10T08:46:14.283Z,1.30
2018-08-10T08:48:45.640Z,1.30
2018-08-10T08:51:19.391Z,1.40
2018-08-10T08:53:53.323Z,1.57
2018-08-10T08:56:23.728Z,1.25
2018-08-10T08:58:53.272Z,1.40
2018-08-10T09:01:23.770Z,1.27
2018-08-10T09:04:59.977Z,1.30
2018-08-10T09:07:29.809Z,1.10
2018-08-10T09:09:59.208Z,1.40
2018-08-10T09:12:28.071Z,1.30
2018-08-10T09:14:59.428Z,1.35
2018-08-10T09:17:28.923Z,1.30
2018-08-10T09:19:58.763Z,1.20
2018-08-10T09:22:30.146Z,1.42
2018-08-10T09:24:59.748Z,1.30
2018-08-10T09:27:33.826Z,1.30
2018-08-10T09:30:03.891Z,1.40
2018-08-10T09:32:34.544Z,1.30
2018-08-10T09:35:04.949Z,1.20
2018-08-10T09:37:35.221Z,1.30
2018-08-10T09:40:06.540Z,1.40
2018-08-10T09:42:36.130Z,1.47
2018-08-10T09:45:06.550Z,1.40
2018-08-10T09:47:35.897Z,1.30
2018-08-10T09:50:05.723Z,1.40
2018-08-10T09:52:39.701Z,1.50
2018-08-10T09:55:39.643Z,1.30
2018-08-10T09:58:12.535Z,1.07
2018-08-10T10:00:47.774Z,1.30
2018-08-10T10:03:19.275Z,1.20
2018-08-10T10:05:49.521Z,1.30
2018-08-10T10:08:19.720Z,1.10
2018-08-10T10:10:49.648Z,1.30
2018-08-10T10:13:19.892Z,1.40
2018-08-10T10:15:49.614Z,1.10
2018-08-10T10:18:21.095Z,1.07
2018-08-10T10:20:50.861Z,1.15
2018-08-10T10:23:20.999Z,1.20
2018-08-10T10:25:50.959Z,0.90
2018-08-10T10:28:22.717Z,1.30
2018-08-10T10:30:52.376Z,1.40
2018-08-10T10:33:21.884Z,1.00
2018-08-10T10:35:51.911Z,1.00
2018-08-10T10:38:21.416Z,1.10
2018-08-10T10:40:51.755Z,1.00
2018-08-10T10:43:22.100Z,0.90
2018-08-10T10:45:51.951Z,1.00
2018-08-10T10:48:21.845Z,1.10
2018-08-10T10:50:54.072Z,4.30
2018-08-10T10:53:23.903Z,1.15
2018-08-10T10:55:54.060Z,1.17
2018-08-10T10:58:24.353Z,1.25
2018-08-10T11:00:54.592Z,1.22
2018-08-10T11:03:28.405Z,1.00
2018-08-10T11:05:58.504Z,1.10
2018-08-10T11:08:28.282Z,1.10
2018-08-10T11:10:58.574Z,1.40
2018-08-10T11:13:28.892Z,1.10
2018-08-10T11:15:58.480Z,0.80
2018-08-10T11:18:28.128Z,0.90
2018-08-10T11:20:58.572Z,0.90
2018-08-10T11:23:28.472Z,1.15
2018-08-10T11:25:58.883Z,1.35
2018-08-10T11:28:28.292Z,0.80
2018-08-10T11:30:57.625Z,1.00
2018-08-10T11:33:27.677Z,1.00
2018-08-10T11:35:57.630Z,0.90
2018-08-10T11:38:27.580Z,0.90
2018-08-10T11:40:58.214Z,1.00
2018-08-10T11:43:31.873Z,0.88
2018-08-10T11:46:01.623Z,4.97
2018-08-10T11:48:31.173Z,2.22
2018-08-10T11:51:00.781Z,1.10
2018-08-10T11:53:30.482Z,1.40
2018-08-10T11:56:00.210Z,1.15
2018-08-10T11:58:30.052Z,1.10
2018-08-10T12:00:59.537Z,1.10
2018-08-10T12:03:29.180Z,0.93
2018-08-10T12:05:58.918Z,0.90
2018-08-10T12:08:29.478Z,1.10
2018-08-10T12:10:59.436Z,1.90
2018-08-10T12:13:29.835Z,1.00
2018-08-10T12:15:59.840Z,0.90
2018-08-10T12:18:29.169Z,0.90
2018-08-10T12:20:59.370Z,1.00
2018-08-10T12:23:29.206Z,1.20
2018-08-10T12:26:02.931Z,0.98
2018-08-10T12:28:33.422Z,1.00
2018-08-10T12:31:05.579Z,0.90
2018-08-10T12:33:35.101Z,0.80
2018-08-10T12:36:07.399Z,1.00
2018-08-10T12:38:38.282Z,0.90
2018-08-10T12:41:08.975Z,1.20
2018-08-10T12:46:16.364Z,1.05
2018-08-10T12:48:46.976Z,0.90
2018-08-10T12:51:18.882Z,1.00
2018-08-10T12:53:48.857Z,0.80
2018-08-10T12:56:18.715Z,1.20
2018-08-10T12:58:49.006Z,0.75
2018-08-10T13:01:19.333Z,0.70
2018-08-10T13:03:49.036Z,0.90
2018-08-10T13:06:19.610Z,0.90
2018-08-10T13:08:49.792Z,0.72
2018-08-10T13:11:19.647Z,0.80
2018-08-10T13:13:49.443Z,0.80
2018-08-10T13:16:19.349Z,0.80
2018-08-10T13:18:49.253Z,1.00
2018-08-10T13:21:18.978Z,0.70
2018-08-10T13:23:48.616Z,0.80
2018-08-10T13:26:18.776Z,0.68
2018-08-10T13:28:48.517Z,0.90
2018-08-10T13:31:19.063Z,0.90
2018-08-10T13:33:49.378Z,0.80
2018-08-10T13:36:18.791Z,0.90
2018-08-10T13:38:48.329Z,0.80
2018-08-10T13:41:22.056Z,0.70
2018-08-10T13:43:51.604Z,1.00
2018-08-10T13:46:22.883Z,3.05
2018-08-10T13:48:54.597Z,2.70
2018-08-10T13:51:23.187Z,1.70
2018-08-10T13:53:51.706Z,0.80
2018-08-10T13:56:19.906Z,2.15
2018-08-10T13:58:49.395Z,2.20
2018-08-10T14:01:17.731Z,2.65
2018-08-10T14:03:46.230Z,0.90
2018-08-10T14:06:14.805Z,1.50
2018-08-10T14:08:43.228Z,1.10
2018-08-10T14:11:11.826Z,1.30
2018-08-10T14:13:40.350Z,2.30
2018-08-10T14:16:08.739Z,1.72
2018-08-10T14:18:37.451Z,1.00
2018-08-10T14:21:06.067Z,3.65
2018-08-10T14:23:35.798Z,1.00
2018-08-10T14:26:04.370Z,0.90
2018-08-10T14:28:33.092Z,0.60
2018-08-10T14:31:01.633Z,1.72
2018-08-10T14:33:30.984Z,1.33
2018-08-10T14:35:59.721Z,1.40
2018-08-10T14:38:29.009Z,1.20
2018-08-10T14:40:58.899Z,1.30
2018-08-10T14:43:27.580Z,1.30
2018-08-10T14:45:56.074Z,1.20
2018-08-10T14:48:24.627Z,1.05
2018-08-10T14:50:53.978Z,1.30
2018-08-10T14:53:22.658Z,1.00
2018-08-10T14:55:51.220Z,1.20
2018-08-10T14:58:19.752Z,0.60
2018-08-10T15:00:48.515Z,1.37
2018-08-10T15:03:17.025Z,1.10
2018-08-10T15:05:45.653Z,1.22
2018-08-10T15:08:14.235Z,0.80
2018-08-10T15:10:43.046Z,1.10
2018-08-10T15:13:11.656Z,1.20
2018-08-10T15:15:40.485Z,4.50
2018-08-10T15:19:10.199Z,1.70
2018-08-10T15:21:38.739Z,3.77
2018-08-10T15:24:07.542Z,0.60
2018-08-10T15:26:36.092Z,2.17
2018-08-10T15:29:04.740Z,1.00
2018-08-10T15:31:33.352Z,0.78
2018-08-10T15:34:01.979Z,1.75
2018-08-10T15:36:30.448Z,1.20
2018-08-10T15:38:59.236Z,1.60
2018-08-10T15:41:27.804Z,1.20
2018-08-10T15:43:56.594Z,1.10
2018-08-10T15:46:25.922Z,0.80
2018-08-10T15:48:54.599Z,0.90
2018-08-10T15:51:25.952Z,1.00
2018-08-10T15:53:57.388Z,0.60
2018-08-10T15:56:25.963Z,4.05
2018-08-10T15:58:55.448Z,4.30
2018-08-10T16:01:26.026Z,1.00
2018-08-10T16:04:26.114Z,0.90
2018-08-10T16:06:54.607Z,1.40
2018-08-10T16:09:23.341Z,1.10
2018-08-10T16:11:53.058Z,1.10
2018-08-10T16:14:21.532Z,0.90
2018-08-10T16:16:50.041Z,1.30
2018-08-10T16:19:18.470Z,0.80
2018-08-10T16:21:47.053Z,1.20
2018-08-10T16:24:15.659Z,1.60
2018-08-10T16:29:27.699Z,1.40
2018-08-10T16:31:56.214Z,1.77
2018-08-10T16:34:25.018Z,1.52
2018-08-10T16:36:53.534Z,0.70
2018-08-10T16:39:22.118Z,0.80
2018-08-10T16:41:51.517Z,1.10
2018-08-10T16:44:19.623Z,0.80
2018-08-10T16:46:48.047Z,0.80
2018-08-10T16:49:16.602Z,1.00
2018-08-10T16:51:45.018Z,0.90
2018-08-10T16:54:13.302Z,0.90
2018-08-10T16:56:42.328Z,1.20
2018-08-10T16:59:11.043Z,0.90
2018-08-10T17:01:39.645Z,0.80
2018-08-10T17:04:08.450Z,0.90
2018-08-10T17:06:37.161Z,1.00
2018-08-10T17:09:07.305Z,1.10
2018-08-10T17:11:35.691Z,1.20
2018-08-10T17:14:04.030Z,0.80
2018-08-10T17:16:32.412Z,1.10
2018-08-10T17:19:00.795Z,1.00
2018-08-10T17:21:29.202Z,1.10
2018-08-10T17:23:57.504Z,0.90
2018-08-10T17:26:26.038Z,0.80
2018-08-10T17:28:54.407Z,1.22
2018-08-10T17:31:22.694Z,1.50
2018-08-10T17:33:51.195Z,1.90
2018-08-10T17:36:19.643Z,1.50
2018-08-10T17:39:19.037Z,1.20
2018-08-10T17:41:47.921Z,0.80
2018-08-10T17:44:16.530Z,1.20
2018-08-10T17:46:45.155Z,1.42
2018-08-10T17:49:14.218Z,1.40
2018-08-10T17:51:42.572Z,1.98
2018-08-10T17:54:11.029Z,2.00
2018-08-10T17:56:39.633Z,2.05
2018-08-10T17:59:08.394Z,1.65
2018-08-10T18:01:36.730Z,1.77
2018-08-10T18:04:05.310Z,1.27
2018-08-10T18:06:33.500Z,1.10
2018-08-10T18:09:01.745Z,1.50
2018-08-10T18:11:30.442Z,1.37
2018-08-10T18:13:59.041Z,1.10
2018-08-10T18:16:27.659Z,1.10
2018-08-10T18:18:56.156Z,1.12
2018-08-10T18:21:24.656Z,1.10
2018-08-10T18:23:53.046Z,1.27
2018-08-10T18:26:22.527Z,1.40
2018-08-10T18:28:50.957Z,1.50
2018-08-10T18:31:19.447Z,2.00
2018-08-10T18:33:47.823Z,1.35
2018-08-10T18:36:16.403Z,1.37
2018-08-10T18:38:44.766Z,1.17
2018-08-10T18:41:12.840Z,1.30
2018-08-10T18:43:41.131Z,1.67
2018-08-10T18:46:09.760Z,2.10
2018-08-10T18:48:38.944Z,1.40
2018-08-10T18:51:07.593Z,1.40
2018-08-10T18:53:35.976Z,1.57
2018-08-10T18:56:04.645Z,1.30
2018-08-10T18:58:32.978Z,1.40
2018-08-10T19:01:01.513Z,1.40
2018-08-10T19:03:29.984Z,1.57
2018-08-10T19:05:58.529Z,1.40
2018-08-10T19:08:26.904Z,1.40
2018-08-10T19:10:55.380Z,1.50
2018-08-10T19:13:23.897Z,1.32
2018-08-10T19:15:52.417Z,1.80
2018-08-10T19:18:21.275Z,1.52
2018-08-10T19:20:49.703Z,1.60
2018-08-10T19:23:18.359Z,1.50
2018-08-10T19:25:46.836Z,1.90
2018-08-10T19:28:15.343Z,1.80
2018-08-10T19:30:43.924Z,2.00
2018-08-10T19:33:12.480Z,1.80
2018-08-10T19:35:40.928Z,1.70
2018-08-10T19:38:09.588Z,1.80
2018-08-10T19:40:37.876Z,1.70
2018-08-10T19:43:06.551Z,1.60
2018-08-10T19:45:35.776Z,1.80
2018-08-10T19:48:04.290Z,1.70
2018-08-10T19:50:32.673Z,2.30
2018-08-10T19:53:01.082Z,3.20
2018-08-10T19:55:29.517Z,3.45
2018-08-10T19:57:57.996Z,3.20
2018-08-10T20:00:26.744Z,2.90
2018-08-10T20:02:55.183Z,2.62
2018-08-10T20:05:23.708Z,2.30
2018-08-10T20:07:52.281Z,2.45
2018-08-10T20:10:20.831Z,2.20
2018-08-10T20:12:49.474Z,2.40
2018-08-10T20:15:18.616Z,2.25
2018-08-10T20:17:48.052Z,2.40
2018-08-10T20:20:17.936Z,2.62
2018-08-10T20:22:46.947Z,2.30
2018-08-10T20:25:15.611Z,2.50
2018-08-10T20:27:44.314Z,2.35
2018-08-10T20:30:14.937Z,2.20
2018-08-10T20:32:43.731Z,2.10
2018-08-10T20:35:14.080Z,2.10
2018-08-10T20:37:43.771Z,2.10
2018-08-10T20:40:15.853Z,2.10
2018-08-10T20:42:44.978Z,2.17
2018-08-10T20:45:14.019Z,1.92
2018-08-10T20:47:43.111Z,2.20
2018-08-10T20:50:14.875Z,2.00
2018-08-10T20:52:45.009Z,1.90
2018-08-10T20:55:14.285Z,1.90
2018-08-10T20:57:43.980Z,2.00
2018-08-10T21:00:12.672Z,1.67
2018-08-10T21:02:43.049Z,1.90
2018-08-10T21:05:12.065Z,2.50
2018-08-10T21:07:41.476Z,2.10
2018-08-10T21:10:12.837Z,1.80
2018-08-10T21:12:43.034Z,2.00
2018-08-10T21:15:16.198Z,1.80
2018-08-10T21:17:45.806Z,1.70
2018-08-10T21:20:15.738Z,1.60
2018-08-10T21:22:46.253Z,1.80
2018-08-10T21:25:14.991Z,1.80
2018-08-10T21:27:44.520Z,1.87
2018-08-10T21:30:15.948Z,1.60
2018-08-10T21:32:47.016Z,1.50
2018-08-10T21:35:16.412Z,1.70
2018-08-10T21:37:45.199Z,1.80
2018-08-10T21:40:14.076Z,1.60
2018-08-10T21:42:43.717Z,2.00
2018-08-10T21:45:13.731Z,1.50
2018-08-10T21:47:43.033Z,1.50
2018-08-10T21:50:13.857Z,2.00
2018-08-10T21:52:44.197Z,1.65
2018-08-10T21:55:13.129Z,1.50
2018-08-10T21:57:42.508Z,1.80
2018-08-10T22:00:32.658Z,1.80
2018-08-10T22:03:01.881Z,1.75
2018-08-10T22:05:30.999Z,1.80
2018-08-10T22:07:59.979Z,1.40
2018-08-10T22:10:29.196Z,1.75
2018-08-10T22:12:58.216Z,1.60
2018-08-10T22:15:32.018Z,1.80
2018-08-10T22:18:06.472Z,1.70
2018-08-10T22:20:35.706Z,1.80
2018-08-10T22:23:04.826Z,2.00
2018-08-10T22:25:33.839Z,1.80
2018-08-10T22:28:02.599Z,1.82
2018-08-10T22:30:31.241Z,1.80
2018-08-10T22:33:00.641Z,1.92
2018-08-10T22:35:30.098Z,2.00
2018-08-10T22:37:59.779Z,1.98
2018-08-10T22:40:29.746Z,2.00
2018-08-10T22:42:58.496Z,1.80
2018-08-10T22:45:28.089Z,1.80
2018-08-10T22:47:57.264Z,1.70
2018-08-10T22:50:25.783Z,1.70
2018-08-10T22:52:54.291Z,2.10
2018-08-10T22:55:23.574Z,1.62
2018-08-10T22:57:52.682Z,2.50
2018-08-10T23:00:21.583Z,1.77
2018-08-10T23:02:50.808Z,1.90
2018-08-10T23:05:19.986Z,1.60
2018-08-10T23:07:48.736Z,1.60
2018-08-10T23:10:18.300Z,1.80
2018-08-10T23:12:47.570Z,1.92
2018-08-10T23:15:17.027Z,2.00
2018-08-10T23:17:46.085Z,1.80
2018-08-10T23:20:15.021Z,2.10
2018-08-10T23:22:44.081Z,1.80
2018-08-10T23:25:13.875Z,2.10
2018-08-10T23:27:43.711Z,1.92
2018-08-10T23:30:16.725Z,2.10
2018-08-10T23:32:45.700Z,2.00
2018-08-10T23:35:14.297Z,2.00
2018-08-10T23:37:43.135Z,2.17
2018-08-10T23:40:14.391Z,2.25
2018-08-10T23:42:43.877Z,2.20
2018-08-10T23:45:13.575Z,2.55
2018-08-10T23:47:42.907Z,2.40
2018-08-10T23:50:13.813Z,2.83
2018-08-10T23:52:42.999Z,2.42
2018-08-10T23:55:12.078Z,2.70
2018-08-10T23:57:41.314Z,2.90
